sensor_id;sensor_type;location;lat;lon;timestamp;pressure;altitude;pressure_sealevel;temperature;humidity
58686;BME280;44465;53.206;-6.106;2023-05-07T00:00:59;101140.78;;;20.90;57.05
58686;BME280;44465;53.206;-6.106;2023-05-07T00:03:25;101194.59;;;21.20;57.09
58686;BME280;44465;53.206;-6.106;2023-05-07T00:05:52;101214.63;;;21.31;56.92
58686;BME280;44465;53.206;-6.106;2023-05-07T00:08:18;101147.69;;;20.94;56.95
58686;BME280;44465;53.206;-6.106;2023-05-07T00:10:44;101218.94;;;21.33;57.26
58686;BME280;44465;53.206;-6.106;2023-05-07T00:13:10;101186.16;;;21.11;56.89
58686;BME280;44465;53.206;-6.106;2023-05-07T00:15:35;101172.22;;;21.04;57.18
58686;BME280;44465;53.206;-6.106;2023-05-07T00:18:01;101214.63;;;21.31;57.30
58686;BME280;44465;53.206;-6.106;2023-05-07T00:20:26;101225.91;;;21.37;57.11
58686;BME280;44465;53.206;-6.106;2023-05-07T00:22:52;101226.03;;;21.34;57.23
58686;BME280;44465;53.206;-6.106;2023-05-07T00:25:18;101222.44;;;21.35;56.95
58686;BME280;44465;53.206;-6.106;2023-05-07T00:27:45;101210.66;;;21.20;57.14
58686;BME280;44465;53.206;-6.106;2023-05-07T00:30:11;101212.50;;;21.20;57.19
58686;BME280;44465;53.206;-6.106;2023-05-07T00:32:36;101229.97;;;21.27;57.19
58686;BME280;44465;53.206;-6.106;2023-05-07T00:35:03;101204.59;;;21.17;56.94
58686;BME280;44465;53.206;-6.106;2023-05-07T00:37:29;101236.75;;;21.34;57.14
58686;BME280;44465;53.206;-6.106;2023-05-07T00:39:55;101231.63;;;21.30;57.08
58686;BME280;44465;53.206;-6.106;2023-05-07T00:42:20;101216.13;;;21.19;57.41
58686;BME280;44465;53.206;-6.106;2023-05-07T00:44:46;101236.38;;;21.25;57.26
58686;BME280;44465;53.206;-6.106;2023-05-07T00:47:12;101244.00;;;21.32;57.08
58686;BME280;44465;53.206;-6.106;2023-05-07T00:49:43;101231.06;;;21.23;57.14
58686;BME280;44465;53.206;-6.106;2023-05-07T00:52:12;101227.69;;;21.19;57.15
58686;BME280;44465;53.206;-6.106;2023-05-07T00:54:40;101256.44;;;21.33;57.18
58686;BME280;44465;53.206;-6.106;2023-05-07T00:59:32;101239.09;;;21.23;57.08
58686;BME280;44465;53.206;-6.106;2023-05-07T01:01:58;101240.84;;;21.24;57.01
58686;BME280;44465;53.206;-6.106;2023-05-07T01:04:24;101228.84;;;21.14;57.00
58686;BME280;44465;53.206;-6.106;2023-05-07T01:06:51;101255.69;;;21.31;57.17
58686;BME280;44465;53.206;-6.106;2023-05-07T01:09:17;101267.63;;;21.24;57.15
58686;BME280;44465;53.206;-6.106;2023-05-07T01:11:45;101258.66;;;21.25;57.17
58686;BME280;44465;53.206;-6.106;2023-05-07T01:14:12;101244.84;;;21.15;57.20
58686;BME280;44465;53.206;-6.106;2023-05-07T01:16:37;101238.47;;;21.18;57.38
58686;BME280;44465;53.206;-6.106;2023-05-07T01:19:03;101205.78;;;20.92;57.18
58686;BME280;44465;53.206;-6.106;2023-05-07T01:21:32;101216.94;;;21.02;57.17
58686;BME280;44465;53.206;-6.106;2023-05-07T01:23:58;101245.56;;;21.19;57.10
58686;BME280;44465;53.206;-6.106;2023-05-07T01:26:24;101237.69;;;21.16;57.04
58686;BME280;44465;53.206;-6.106;2023-05-07T01:28:50;101247.44;;;21.17;57.30
58686;BME280;44465;53.206;-6.106;2023-05-07T01:31:16;101238.75;;;21.12;57.12
58686;BME280;44465;53.206;-6.106;2023-05-07T01:33:44;101243.91;;;21.16;56.98
58686;BME280;44465;53.206;-6.106;2023-05-07T01:36:11;101266.69;;;21.25;57.02
58686;BME280;44465;53.206;-6.106;2023-05-07T01:38:39;101272.00;;;21.27;56.96
58686;BME280;44465;53.206;-6.106;2023-05-07T01:41:06;101273.22;;;21.19;57.07
58686;BME280;44465;53.206;-6.106;2023-05-07T01:43:33;101239.16;;;21.04;57.33
58686;BME280;44465;53.206;-6.106;2023-05-07T01:45:59;101275.66;;;21.24;57.13
58686;BME280;44465;53.206;-6.106;2023-05-07T01:48:27;101247.94;;;21.06;57.23
58686;BME280;44465;53.206;-6.106;2023-05-07T01:50:52;101273.06;;;21.22;57.09
58686;BME280;44465;53.206;-6.106;2023-05-07T01:53:18;101240.81;;;21.06;57.24
58686;BME280;44465;53.206;-6.106;2023-05-07T01:55:44;101253.88;;;21.13;57.16
58686;BME280;44465;53.206;-6.106;2023-05-07T01:58:10;101271.41;;;21.20;57.30
58686;BME280;44465;53.206;-6.106;2023-05-07T02:00:36;101266.06;;;21.20;57.09
58686;BME280;44465;53.206;-6.106;2023-05-07T02:03:01;101234.25;;;20.95;57.27
58686;BME280;44465;53.206;-6.106;2023-05-07T02:05:38;101268.88;;;21.17;57.42
58686;BME280;44465;53.206;-6.106;2023-05-07T02:08:10;101275.84;;;21.21;57.22
58686;BME280;44465;53.206;-6.106;2023-05-07T02:10:36;101274.94;;;21.20;57.17
58686;BME280;44465;53.206;-6.106;2023-05-07T02:13:04;101280.44;;;21.17;57.09
58686;BME280;44465;53.206;-6.106;2023-05-07T02:15:30;101254.34;;;21.03;57.01
58686;BME280;44465;53.206;-6.106;2023-05-07T02:18:07;101292.97;;;21.17;57.08
58686;BME280;44465;53.206;-6.106;2023-05-07T02:20:33;101289.38;;;21.18;57.01
58686;BME280;44465;53.206;-6.106;2023-05-07T02:22:59;101297.31;;;21.19;57.02
58686;BME280;44465;53.206;-6.106;2023-05-07T02:25:26;101287.75;;;21.14;57.17
58686;BME280;44465;53.206;-6.106;2023-05-07T02:27:52;101286.03;;;21.13;57.10
58686;BME280;44465;53.206;-6.106;2023-05-07T02:30:21;101266.88;;;21.03;57.25
58686;BME280;44465;53.206;-6.106;2023-05-07T02:32:49;101278.78;;;21.15;57.39
58686;BME280;44465;53.206;-6.106;2023-05-07T02:35:15;101270.41;;;21.03;57.06
58686;BME280;44465;53.206;-6.106;2023-05-07T02:37:40;101292.97;;;21.17;57.08
58686;BME280;44465;53.206;-6.106;2023-05-07T02:40:06;101280.66;;;21.13;57.35
58686;BME280;44465;53.206;-6.106;2023-05-07T02:42:32;101272.84;;;21.08;57.29
58686;BME280;44465;53.206;-6.106;2023-05-07T02:44:58;101285.88;;;21.16;57.21
58686;BME280;44465;53.206;-6.106;2023-05-07T02:47:24;101251.81;;;21.00;56.94
58686;BME280;44465;53.206;-6.106;2023-05-07T02:49:53;101247.69;;;20.93;57.43
58686;BME280;44465;53.206;-6.106;2023-05-07T02:52:19;101209.63;;;20.67;57.18
58686;BME280;44465;53.206;-6.106;2023-05-07T02:54:44;101294.84;;;21.15;56.93
58686;BME280;44465;53.206;-6.106;2023-05-07T02:57:10;101286.19;;;21.10;57.07
58686;BME280;44465;53.206;-6.106;2023-05-07T02:59:35;101213.97;;;20.70;56.99
58686;BME280;44465;53.206;-6.106;2023-05-07T03:02:01;101224.38;;;20.76;57.16
58686;BME280;44465;53.206;-6.106;2023-05-07T03:04:26;101247.09;;;20.86;57.15
58686;BME280;44465;53.206;-6.106;2023-05-07T03:06:52;101211.38;;;20.68;57.37
58686;BME280;44465;53.206;-6.106;2023-05-07T03:09:17;101256.81;;;20.89;57.23
58686;BME280;44465;53.206;-6.106;2023-05-07T03:11:43;101215.84;;;20.68;57.29
58686;BME280;44465;53.206;-6.106;2023-05-07T03:14:09;101275.84;;;21.02;57.18
58686;BME280;44465;53.206;-6.106;2023-05-07T03:16:34;101232.50;;;20.74;57.43
58686;BME280;44465;53.206;-6.106;2023-05-07T03:19:00;101257.09;;;20.83;57.42
58686;BME280;44465;53.206;-6.106;2023-05-07T03:21:26;101242.34;;;20.74;57.00
58686;BME280;44465;53.206;-6.106;2023-05-07T03:23:51;101281.41;;;20.97;57.16
58686;BME280;44465;53.206;-6.106;2023-05-07T03:26:17;101296.47;;;21.00;57.24
58686;BME280;44465;53.206;-6.106;2023-05-07T03:28:43;101238.25;;;20.65;57.28
58686;BME280;44465;53.206;-6.106;2023-05-07T03:31:12;101307.97;;;21.02;56.76
58686;BME280;44465;53.206;-6.106;2023-05-07T03:33:50;101268.91;;;20.79;57.16
58686;BME280;44465;53.206;-6.106;2023-05-07T03:36:16;101260.88;;;20.79;57.46
58686;BME280;44465;53.206;-6.106;2023-05-07T03:38:41;101295.75;;;20.96;57.45
58686;BME280;44465;53.206;-6.106;2023-05-07T03:41:07;101298.19;;;21.01;57.44
58686;BME280;44465;53.206;-6.106;2023-05-07T03:43:33;101264.31;;;20.81;57.37
58686;BME280;44465;53.206;-6.106;2023-05-07T03:46:04;101285.34;;;20.90;57.10
58686;BME280;44465;53.206;-6.106;2023-05-07T03:48:30;101274.09;;;20.82;57.41
58686;BME280;44465;53.206;-6.106;2023-05-07T03:50:57;101249.97;;;20.63;57.58
58686;BME280;44465;53.206;-6.106;2023-05-07T03:53:25;101319.31;;;21.07;57.45
58686;BME280;44465;53.206;-6.106;2023-05-07T03:55:51;101292.63;;;20.86;57.38
58686;BME280;44465;53.206;-6.106;2023-05-07T03:58:17;101261.41;;;20.66;57.09
58686;BME280;44465;53.206;-6.106;2023-05-07T04:00:42;101259.66;;;20.65;57.00
58686;BME280;44465;53.206;-6.106;2023-05-07T04:03:17;101319.31;;;21.07;57.30
58686;BME280;44465;53.206;-6.106;2023-05-07T04:05:43;101272.75;;;20.71;57.16
58686;BME280;44465;53.206;-6.106;2023-05-07T04:08:08;101284.06;;;20.78;57.32
58686;BME280;44465;53.206;-6.106;2023-05-07T04:10:38;101310.06;;;20.95;57.31
58686;BME280;44465;53.206;-6.106;2023-05-07T04:13:08;101241.22;;;20.59;56.85
58686;BME280;44465;53.206;-6.106;2023-05-07T04:15:35;101282.84;;;20.85;57.64
58686;BME280;44465;53.206;-6.106;2023-05-07T04:18:01;101317.75;;;21.03;57.09
58686;BME280;44465;53.206;-6.106;2023-05-07T04:20:27;101290.81;;;20.87;57.20
58686;BME280;44465;53.206;-6.106;2023-05-07T04:23:00;101297.91;;;20.88;57.51
58686;BME280;44465;53.206;-6.106;2023-05-07T04:25:26;101293.00;;;20.79;57.52
58686;BME280;44465;53.206;-6.106;2023-05-07T04:27:54;101321.84;;;20.91;57.17
58686;BME280;44465;53.206;-6.106;2023-05-07T04:30:21;101254.16;;;20.49;57.46
58686;BME280;44465;53.206;-6.106;2023-05-07T04:32:47;101338.44;;;20.99;57.43
58686;BME280;44465;53.206;-6.106;2023-05-07T04:35:13;101322.66;;;20.93;57.19
58686;BME280;44465;53.206;-6.106;2023-05-07T04:37:40;101275.44;;;20.71;57.32
58686;BME280;44465;53.206;-6.106;2023-05-07T04:40:06;101269.50;;;20.65;57.21
58686;BME280;44465;53.206;-6.106;2023-05-07T04:42:32;101283.53;;;20.70;56.86
58686;BME280;44465;53.206;-6.106;2023-05-07T04:45:01;101318.19;;;20.94;57.05
58686;BME280;44465;53.206;-6.106;2023-05-07T04:47:29;101304.47;;;20.81;57.26
58686;BME280;44465;53.206;-6.106;2023-05-07T04:49:55;101317.59;;;20.87;57.21
58686;BME280;44465;53.206;-6.106;2023-05-07T04:52:21;101278.53;;;20.62;56.96
58686;BME280;44465;53.206;-6.106;2023-05-07T04:54:47;101326.34;;;20.90;57.56
58686;BME280;44465;53.206;-6.106;2023-05-07T04:57:13;101341.13;;;20.99;57.46
58686;BME280;44465;53.206;-6.106;2023-05-07T04:59:41;101324.53;;;20.91;57.46
58686;BME280;44465;53.206;-6.106;2023-05-07T05:02:07;101335.81;;;20.98;57.50
58686;BME280;44465;53.206;-6.106;2023-05-07T05:04:33;101312.50;;;20.81;57.38
58686;BME280;44465;53.206;-6.106;2023-05-07T05:06:58;101338.00;;;20.89;57.08
58686;BME280;44465;53.206;-6.106;2023-05-07T05:09:24;101272.97;;;20.48;57.22
58686;BME280;44465;53.206;-6.106;2023-05-07T05:11:50;101350.22;;;20.95;57.25
58686;BME280;44465;53.206;-6.106;2023-05-07T05:14:15;101346.59;;;20.96;57.25
58686;BME280;44465;53.206;-6.106;2023-05-07T05:16:41;101340.59;;;20.91;57.19
58686;BME280;44465;53.206;-6.106;2023-05-07T05:19:06;101319.88;;;20.75;57.23
58686;BME280;44465;53.206;-6.106;2023-05-07T05:21:36;101348.56;;;20.92;57.35
58686;BME280;44465;53.206;-6.106;2023-05-07T05:24:06;101333.78;;;20.84;57.28
58686;BME280;44465;53.206;-6.106;2023-05-07T05:26:31;101347.69;;;20.92;57.39
58686;BME280;44465;53.206;-6.106;2023-05-07T05:28:57;101365.34;;;20.96;57.21
58686;BME280;44465;53.206;-6.106;2023-05-07T05:31:25;101337.69;;;20.76;57.61
58686;BME280;44465;53.206;-6.106;2023-05-07T05:33:50;101315.94;;;20.64;56.97
58686;BME280;44465;53.206;-6.106;2023-05-07T05:36:16;101371.66;;;20.95;57.22
58686;BME280;44465;53.206;-6.106;2023-05-07T05:38:43;101361.34;;;20.86;57.50
58686;BME280;44465;53.206;-6.106;2023-05-07T05:41:10;101361.22;;;20.89;57.12
58686;BME280;44465;53.206;-6.106;2023-05-07T05:43:36;101360.13;;;20.93;57.34
58686;BME280;44465;53.206;-6.106;2023-05-07T05:46:01;101351.47;;;20.88;57.47
58686;BME280;44465;53.206;-6.106;2023-05-07T05:48:31;101344.50;;;20.84;57.43
58686;BME280;44465;53.206;-6.106;2023-05-07T05:50:58;101324.34;;;20.75;57.17
58686;BME280;44465;53.206;-6.106;2023-05-07T05:53:24;101341.72;;;20.85;57.25
58686;BME280;44465;53.206;-6.106;2023-05-07T05:55:50;101363.59;;;20.95;57.29
58686;BME280;44465;53.206;-6.106;2023-05-07T05:58:16;101346.22;;;20.85;57.20
58686;BME280;44465;53.206;-6.106;2023-05-07T06:00:48;101362.81;;;20.93;57.02
58686;BME280;44465;53.206;-6.106;2023-05-07T06:03:17;101366.41;;;20.92;57.27
58686;BME280;44465;53.206;-6.106;2023-05-07T06:05:44;101364.75;;;20.89;57.37
58686;BME280;44465;53.206;-6.106;2023-05-07T06:08:10;101379.75;;;20.94;57.33
58686;BME280;44465;53.206;-6.106;2023-05-07T06:10:37;101353.75;;;20.76;57.33
58686;BME280;44465;53.206;-6.106;2023-05-07T06:13:03;101368.31;;;20.90;57.35
58686;BME280;44465;53.206;-6.106;2023-05-07T06:15:30;101363.22;;;20.84;57.50
58686;BME280;44465;53.206;-6.106;2023-05-07T06:18:00;101369.38;;;20.86;57.54
58686;BME280;44465;53.206;-6.106;2023-05-07T06:20:25;101344.28;;;20.68;57.49
58686;BME280;44465;53.206;-6.106;2023-05-07T06:22:51;101375.56;;;20.88;57.19
58686;BME280;44465;53.206;-6.106;2023-05-07T06:25:17;101386.03;;;20.92;57.16
58686;BME280;44465;53.206;-6.106;2023-05-07T06:27:42;101371.13;;;20.87;57.27
58686;BME280;44465;53.206;-6.106;2023-05-07T06:30:08;101330.31;;;20.61;57.28
58686;BME280;44465;53.206;-6.106;2023-05-07T06:32:34;101314.75;;;20.50;57.55
58686;BME280;44465;53.206;-6.106;2023-05-07T06:34:59;101385.16;;;20.92;57.37
58686;BME280;44465;53.206;-6.106;2023-05-07T06:37:25;101302.81;;;20.38;57.70
58686;BME280;44465;53.206;-6.106;2023-05-07T06:39:57;101379.09;;;20.88;57.23
58686;BME280;44465;53.206;-6.106;2023-05-07T06:42:23;101348.28;;;20.59;57.54
58686;BME280;44465;53.206;-6.106;2023-05-07T06:44:49;101343.97;;;20.55;57.16
58686;BME280;44465;53.206;-6.106;2023-05-07T06:47:16;101378.66;;;20.79;57.58
58686;BME280;44465;53.206;-6.106;2023-05-07T06:49:45;101356.09;;;20.64;57.38
58686;BME280;44465;53.206;-6.106;2023-05-07T06:52:13;101369.31;;;20.67;57.68
58686;BME280;44465;53.206;-6.106;2023-05-07T06:54:39;101338.72;;;20.53;57.29
58686;BME280;44465;53.206;-6.106;2023-05-07T06:57:05;101338.91;;;20.49;57.50
58686;BME280;44465;53.206;-6.106;2023-05-07T06:59:31;101418.91;;;20.96;57.54
58686;BME280;44465;53.206;-6.106;2023-05-07T07:01:58;101364.13;;;20.64;57.38
58686;BME280;44465;53.206;-6.106;2023-05-07T07:04:23;101415.41;;;20.94;57.43
58686;BME280;44465;53.206;-6.106;2023-05-07T07:06:57;101391.16;;;20.78;57.40
58686;BME280;44465;53.206;-6.106;2023-05-07T07:09:23;101390.28;;;20.77;57.47
58686;BME280;44465;53.206;-6.106;2023-05-07T07:11:48;101393.09;;;20.74;57.47
58686;BME280;44465;53.206;-6.106;2023-05-07T07:14:14;101396.44;;;20.80;57.48
58686;BME280;44465;53.206;-6.106;2023-05-07T07:16:45;101432.41;;;20.93;57.51
58686;BME280;44465;53.206;-6.106;2023-05-07T07:19:13;101426.41;;;20.88;57.38
58686;BME280;44465;53.206;-6.106;2023-05-07T07:21:41;101406.53;;;20.73;57.44
58686;BME280;44465;53.206;-6.106;2023-05-07T07:24:07;101420.38;;;20.83;57.52
58686;BME280;44465;53.206;-6.106;2023-05-07T07:26:33;101435.09;;;20.93;57.45
58686;BME280;44465;53.206;-6.106;2023-05-07T07:28:58;101442.19;;;20.94;57.56
58686;BME280;44465;53.206;-6.106;2023-05-07T07:31:24;101444.75;;;20.97;57.48
58686;BME280;44465;53.206;-6.106;2023-05-07T07:33:50;101441.13;;;20.98;57.71
58686;BME280;44465;53.206;-6.106;2023-05-07T07:36:16;101439.59;;;20.92;57.44
58686;BME280;44465;53.206;-6.106;2023-05-07T07:38:42;101419.44;;;20.84;57.44
58686;BME280;44465;53.206;-6.106;2023-05-07T07:41:08;101450.00;;;20.99;57.39
58686;BME280;44465;53.206;-6.106;2023-05-07T07:43:34;101439.59;;;20.92;57.47
58686;BME280;44465;53.206;-6.106;2023-05-07T07:46:01;101386.38;;;20.64;57.30
58686;BME280;44465;53.206;-6.106;2023-05-07T07:48:27;101385.53;;;20.64;57.37
58686;BME280;44465;53.206;-6.106;2023-05-07T07:50:53;101424.53;;;20.90;57.47
58686;BME280;44465;53.206;-6.106;2023-05-07T07:53:18;101438.44;;;20.98;57.39
58686;BME280;44465;53.206;-6.106;2023-05-07T07:55:44;101356.88;;;20.45;57.43
58686;BME280;44465;53.206;-6.106;2023-05-07T07:58:13;101360.44;;;20.45;57.14
58686;BME280;44465;53.206;-6.106;2023-05-07T08:00:39;101381.16;;;20.61;57.39
58686;BME280;44465;53.206;-6.106;2023-05-07T08:03:05;101381.03;;;20.64;57.15
58686;BME280;44465;53.206;-6.106;2023-05-07T08:05:36;101431.56;;;20.92;57.19
58686;BME280;44465;53.206;-6.106;2023-05-07T08:08:04;101427.34;;;20.87;57.17
58686;BME280;44465;53.206;-6.106;2023-05-07T08:10:32;101429.75;;;20.93;57.38
58686;BME280;44465;53.206;-6.106;2023-05-07T08:13:04;101422.19;;;20.82;57.44
58686;BME280;44465;53.206;-6.106;2023-05-07T08:15:30;101445.38;;;21.02;57.42
58686;BME280;44465;53.206;-6.106;2023-05-07T08:17:56;101436.91;;;20.92;57.23
58686;BME280;44465;53.206;-6.106;2023-05-07T08:20:26;101444.59;;;21.00;57.49
58686;BME280;44465;53.206;-6.106;2023-05-07T08:22:52;101437.50;;;20.99;57.59
58686;BME280;44465;53.206;-6.106;2023-05-07T08:25:18;101438.50;;;20.97;57.32
58686;BME280;44465;53.206;-6.106;2023-05-07T08:27:43;101425.47;;;20.89;57.29
58686;BME280;44465;53.206;-6.106;2023-05-07T08:30:10;101413.84;;;20.90;57.29
58686;BME280;44465;53.206;-6.106;2023-05-07T08:32:36;101416.44;;;20.91;57.34
58686;BME280;44465;53.206;-6.106;2023-05-07T08:35:02;101367.84;;;20.59;57.35
58686;BME280;44465;53.206;-6.106;2023-05-07T08:37:28;101374.44;;;20.71;57.29
58686;BME280;44465;53.206;-6.106;2023-05-07T08:39:54;101432.81;;;21.04;57.22
58686;BME280;44465;53.206;-6.106;2023-05-07T08:42:23;101408.47;;;20.90;57.30
58686;BME280;44465;53.206;-6.106;2023-05-07T08:44:50;101435.41;;;21.06;57.25
58686;BME280;44465;53.206;-6.106;2023-05-07T08:47:19;101441.72;;;21.05;57.20
58686;BME280;44465;53.206;-6.106;2023-05-07T08:49:45;101427.00;;;20.95;57.13
58686;BME280;44465;53.206;-6.106;2023-05-07T08:52:12;101410.78;;;20.79;57.20
58686;BME280;44465;53.206;-6.106;2023-05-07T08:54:38;101387.06;;;20.69;57.18
58686;BME280;44465;53.206;-6.106;2023-05-07T08:57:06;101442.66;;;21.04;57.42
58686;BME280;44465;53.206;-6.106;2023-05-07T08:59:34;101385.38;;;20.67;57.17
58686;BME280;44465;53.206;-6.106;2023-05-07T09:02:00;101434.28;;;20.91;57.31
58686;BME280;44465;53.206;-6.106;2023-05-07T09:04:27;101385.72;;;20.59;57.00
58686;BME280;44465;53.206;-6.106;2023-05-07T09:06:54;101422.81;;;20.89;57.72
58686;BME280;44465;53.206;-6.106;2023-05-07T09:09:22;101459.44;;;21.07;57.22
58686;BME280;44465;53.206;-6.106;2023-05-07T09:11:56;101354.16;;;20.46;57.41
58686;BME280;44465;53.206;-6.106;2023-05-07T09:14:25;101457.59;;;21.10;57.18
58686;BME280;44465;53.206;-6.106;2023-05-07T09:16:54;101461.03;;;21.12;57.02
58686;BME280;44465;53.206;-6.106;2023-05-07T09:19:23;101461.19;;;21.08;56.73
58686;BME280;44465;53.206;-6.106;2023-05-07T09:21:57;101454.22;;;21.04;57.14
58686;BME280;44465;53.206;-6.106;2023-05-07T09:24:23;101406.19;;;20.81;57.17
58686;BME280;44465;53.206;-6.106;2023-05-07T09:26:48;101405.25;;;20.82;57.11
58686;BME280;44465;53.206;-6.106;2023-05-07T09:29:15;101426.13;;;20.94;57.19
58686;BME280;44465;53.206;-6.106;2023-05-07T09:31:40;101424.34;;;20.95;57.18
58686;BME280;44465;53.206;-6.106;2023-05-07T09:34:09;101453.22;;;21.07;57.10
58686;BME280;44465;53.206;-6.106;2023-05-07T09:36:36;101427.94;;;20.94;57.07
58686;BME280;44465;53.206;-6.106;2023-05-07T09:39:02;101432.38;;;20.95;56.95
58686;BME280;44465;53.206;-6.106;2023-05-07T09:41:30;101464.50;;;21.14;56.92
58686;BME280;44465;53.206;-6.106;2023-05-07T09:44:05;101449.00;;;21.01;56.27
58686;BME280;44465;53.206;-6.106;2023-05-07T09:46:38;101431.25;;;20.80;55.33
58686;BME280;44465;53.206;-6.106;2023-05-07T09:49:21;101448.25;;;20.79;53.85
58686;BME280;44465;53.206;-6.106;2023-05-07T09:51:51;101462.78;;;20.71;54.10
58686;BME280;44465;53.206;-6.106;2023-05-07T09:54:19;101453.16;;;20.67;54.37
58686;BME280;44465;53.206;-6.106;2023-05-07T09:56:52;101450.13;;;20.54;53.64
58686;BME280;44465;53.206;-6.106;2023-05-07T09:59:20;101451.00;;;20.55;53.52
58686;BME280;44465;53.206;-6.106;2023-05-07T10:01:48;101451.41;;;20.45;53.70
58686;BME280;44465;53.206;-6.106;2023-05-07T10:04:14;101472.34;;;20.56;54.06
58686;BME280;44465;53.206;-6.106;2023-05-07T10:06:42;101470.47;;;20.58;53.96
58686;BME280;44465;53.206;-6.106;2023-05-07T10:09:09;101469.00;;;20.51;53.83
58686;BME280;44465;53.206;-6.106;2023-05-07T10:11:36;101460.78;;;20.56;53.30
58686;BME280;44465;53.206;-6.106;2023-05-07T10:14:03;101456.34;;;20.55;53.50
58686;BME280;44465;53.206;-6.106;2023-05-07T10:16:31;101445.97;;;20.47;53.49
58686;BME280;44465;53.206;-6.106;2023-05-07T10:18:58;101444.09;;;20.49;53.30
58686;BME280;44465;53.206;-6.106;2023-05-07T10:21:27;101408.59;;;20.25;53.18
58686;BME280;44465;53.206;-6.106;2023-05-07T10:23:58;101432.78;;;20.42;53.08
58686;BME280;44465;53.206;-6.106;2023-05-07T10:26:27;101433.69;;;20.43;53.41
58686;BME280;44465;53.206;-6.106;2023-05-07T10:29:11;101429.47;;;20.37;52.83
58686;BME280;44465;53.206;-6.106;2023-05-07T10:34:27;101412.31;;;20.21;53.03
58686;BME280;44465;53.206;-6.106;2023-05-07T10:36:54;101436.25;;;20.24;52.98
58686;BME280;44465;53.206;-6.106;2023-05-07T10:39:21;101445.38;;;20.40;53.43
58686;BME280;44465;53.206;-6.106;2023-05-07T10:41:48;101423.88;;;20.21;52.96
58686;BME280;44465;53.206;-6.106;2023-05-07T10:44:28;101428.03;;;20.28;52.94
58686;BME280;44465;53.206;-6.106;2023-05-07T10:47:12;101438.47;;;20.35;53.29
58686;BME280;44465;53.206;-6.106;2023-05-07T10:52:25;101433.13;;;20.35;53.19
58686;BME280;44465;53.206;-6.106;2023-05-07T10:57:46;101438.47;;;20.35;52.98
58686;BME280;44465;53.206;-6.106;2023-05-07T11:05:29;101434.84;;;20.36;53.41
58686;BME280;44465;53.206;-6.106;2023-05-07T11:08:56;101436.72;;;20.34;53.41
58686;BME280;44465;53.206;-6.106;2023-05-07T11:11:50;101434.00;;;20.35;52.96
58686;BME280;44465;53.206;-6.106;2023-05-07T11:17:09;101431.25;;;20.37;52.90
58686;BME280;44465;53.206;-6.106;2023-05-07T11:19:54;101343.44;;;19.83;52.11
58686;BME280;44465;53.206;-6.106;2023-05-07T11:22:47;101415.72;;;20.24;51.82
58686;BME280;44465;53.206;-6.106;2023-05-07T11:25:32;101382.44;;;20.11;51.84
58686;BME280;44465;53.206;-6.106;2023-05-07T11:28:07;101395.59;;;20.15;52.07
58686;BME280;44465;53.206;-6.106;2023-05-07T11:30:42;101418.59;;;20.40;51.35
58686;BME280;44465;53.206;-6.106;2023-05-07T11:33:10;101420.56;;;20.37;52.08
58686;BME280;44465;53.206;-6.106;2023-05-07T11:35:37;101426.50;;;20.43;52.13
58686;BME280;44465;53.206;-6.106;2023-05-07T11:38:05;101401.00;;;20.35;52.50
58686;BME280;44465;53.206;-6.106;2023-05-07T11:40:33;101394.94;;;20.31;52.78
58686;BME280;44465;53.206;-6.106;2023-05-07T11:42:59;101404.50;;;20.37;53.34
58686;BME280;44465;53.206;-6.106;2023-05-07T11:45:24;101382.78;;;20.24;53.71
58686;BME280;44465;53.206;-6.106;2023-05-07T11:47:53;101430.53;;;20.54;53.81
58686;BME280;44465;53.206;-6.106;2023-05-07T11:50:18;101405.22;;;20.40;53.97
58686;BME280;44465;53.206;-6.106;2023-05-07T11:52:50;101382.50;;;20.30;54.04
58686;BME280;44465;53.206;-6.106;2023-05-07T11:55:18;101398.22;;;20.38;54.13
58686;BME280;44465;53.206;-6.106;2023-05-07T11:57:44;101440.03;;;20.61;54.33
58686;BME280;44465;53.206;-6.106;2023-05-07T12:00:10;101432.19;;;20.56;54.41
58686;BME280;44465;53.206;-6.106;2023-05-07T12:02:39;101442.69;;;20.61;54.76
58686;BME280;44465;53.206;-6.106;2023-05-07T12:05:05;101440.91;;;20.61;54.84
58686;BME280;44465;53.206;-6.106;2023-05-07T12:07:33;101405.00;;;20.46;54.83
58686;BME280;44465;53.206;-6.106;2023-05-07T12:09:59;101411.81;;;20.54;54.98
58686;BME280;44465;53.206;-6.106;2023-05-07T12:12:24;101437.75;;;20.72;54.91
58686;BME280;44465;53.206;-6.106;2023-05-07T12:14:52;101435.06;;;20.74;55.08
58686;BME280;44465;53.206;-6.106;2023-05-07T12:17:17;101418.50;;;20.64;54.75
58686;BME280;44465;53.206;-6.106;2023-05-07T12:19:44;101423.84;;;20.64;55.13
58686;BME280;44465;53.206;-6.106;2023-05-07T12:22:10;101405.31;;;20.59;55.02
58686;BME280;44465;53.206;-6.106;2023-05-07T12:24:49;101437.53;;;20.79;54.92
58686;BME280;44465;53.206;-6.106;2023-05-07T12:27:16;101428.88;;;20.72;54.94
58686;BME280;44465;53.206;-6.106;2023-05-07T12:29:47;101422.59;;;20.73;55.06
58686;BME280;44465;53.206;-6.106;2023-05-07T12:32:16;101426.75;;;20.80;54.71
58686;BME280;44465;53.206;-6.106;2023-05-07T12:34:43;101400.56;;;20.66;54.45
58686;BME280;44465;53.206;-6.106;2023-05-07T12:37:10;101422.25;;;20.81;54.31
58686;BME280;44465;53.206;-6.106;2023-05-07T12:39:35;101436.31;;;20.86;54.27
58686;BME280;44465;53.206;-6.106;2023-05-07T12:42:01;101423.22;;;20.80;54.42
58686;BME280;44465;53.206;-6.106;2023-05-07T12:44:31;101446.09;;;20.87;54.28
58686;BME280;44465;53.206;-6.106;2023-05-07T12:46:58;101428.28;;;20.86;54.22
58686;BME280;44465;53.206;-6.106;2023-05-07T12:49:26;101437.84;;;20.91;54.44
58686;BME280;44465;53.206;-6.106;2023-05-07T12:51:53;101434.44;;;20.88;54.03
58686;BME280;44465;53.206;-6.106;2023-05-07T12:54:33;101417.88;;;20.80;54.10
58686;BME280;44465;53.206;-6.106;2023-05-07T12:57:06;101430.88;;;20.87;54.73
58686;BME280;44465;53.206;-6.106;2023-05-07T12:59:33;101423.66;;;20.89;54.38
58686;BME280;44465;53.206;-6.106;2023-05-07T13:01:59;101385.25;;;20.70;54.78